createdAt,value
2022-08-05T00:00:46.717Z,3.37
2022-08-05T00:03:16.770Z,4.13
2022-08-05T00:06:04.978Z,6.10
2022-08-05T00:08:34.900Z,2.87
2022-08-05T00:11:05.187Z,2.97
2022-08-05T00:13:47.321Z,2.70
2022-08-05T00:16:20.066Z,3.20
2022-08-05T00:19:04.209Z,3.83
2022-08-05T00:21:30.832Z,2.67
2022-08-05T00:24:10.691Z,4.10
2022-08-05T00:26:38.447Z,3.60
2022-08-05T00:29:04.880Z,3.87
2022-08-05T00:31:54.420Z,3.70
2022-08-05T00:34:53.307Z,3.67
2022-08-05T00:37:12.847Z,4.00
2022-08-05T00:39:58.573Z,3.33
2022-08-05T00:42:37.525Z,3.40
2022-08-05T00:45:06.619Z,2.63
2022-08-05T00:47:56.434Z,3.33
2022-08-05T00:50:25.061Z,3.90
2022-08-05T00:52:52.132Z,3.50
2022-08-05T00:55:19.797Z,3.43
2022-08-05T00:57:55.338Z,3.90
2022-08-05T01:00:29.354Z,4.17
2022-08-05T01:02:57.008Z,4.30
2022-08-05T01:05:24.063Z,3.80
2022-08-05T01:08:41.291Z,4.17
2022-08-05T01:11:10.014Z,4.20
2022-08-05T01:13:58.658Z,3.83
2022-08-05T01:17:01.224Z,4.20
2022-08-05T01:20:01.292Z,4.30
2022-08-05T01:22:47.066Z,4.67
2022-08-05T01:25:41.648Z,4.13
2022-08-05T01:28:26.184Z,3.70
2022-08-05T01:30:57.062Z,4.30
2022-08-05T01:33:29.473Z,4.10
2022-08-05T01:36:12.889Z,4.00
2022-08-05T01:38:40.793Z,4.27
2022-08-05T01:41:07.939Z,5.03
2022-08-05T01:43:35.628Z,4.33
2022-08-05T01:46:07.283Z,4.60
2022-08-05T01:48:44.793Z,4.17
2022-08-05T01:51:18.136Z,5.00
2022-08-05T01:53:57.663Z,4.77
2022-08-05T01:58:12.870Z,4.37
2022-08-05T01:59:20.159Z,4.83
2022-08-05T02:01:49.559Z,4.20
2022-08-05T02:04:20.121Z,4.60
2022-08-05T02:06:47.694Z,5.20
2022-08-05T02:09:14.639Z,3.87
2022-08-05T02:11:52.186Z,5.33
2022-08-05T02:14:27.548Z,5.03
2022-08-05T02:16:57.789Z,4.63
2022-08-05T02:19:27.768Z,4.87
2022-08-05T02:22:26.710Z,5.10
2022-08-05T02:25:01.747Z,5.23
2022-08-05T02:27:58.018Z,6.03
2022-08-05T02:30:17.746Z,4.97
2022-08-05T02:32:48.029Z,5.37
2022-08-05T02:35:22.140Z,4.90
2022-08-05T02:37:59.115Z,8.33
2022-08-05T02:40:26.908Z,5.33
2022-08-05T02:42:55.416Z,5.33
2022-08-05T02:45:24.120Z,5.53
2022-08-05T02:48:07.305Z,4.67
2022-08-05T02:50:46.924Z,10.23
2022-08-05T02:53:18.939Z,5.23
2022-08-05T02:55:54.652Z,5.67
2022-08-05T02:58:26.697Z,6.13
2022-08-05T03:00:55.313Z,6.20
2022-08-05T03:03:23.384Z,4.93
2022-08-05T03:06:53.761Z,6.77
2022-08-05T03:08:38.463Z,6.07
2022-08-05T03:11:57.447Z,5.67
2022-08-05T03:14:07.903Z,5.87
2022-08-05T03:16:35.814Z,6.60
2022-08-05T03:19:04.232Z,5.87
2022-08-05T03:21:41.299Z,5.87
2022-08-05T03:24:09.361Z,5.37
2022-08-05T03:26:39.759Z,6.40
2022-08-05T03:29:06.238Z,7.87
2022-08-05T03:31:55.693Z,6.93
2022-08-05T03:34:24.345Z,7.33
2022-08-05T03:36:50.957Z,10.03
2022-08-05T03:39:20.156Z,6.33
2022-08-05T03:41:53.966Z,13.17
2022-08-05T03:44:22.984Z,8.60
2022-08-05T03:46:49.523Z,7.27
2022-08-05T03:49:15.924Z,7.83
2022-08-05T03:52:38.609Z,8.13
2022-08-05T03:55:52.348Z,7.70
2022-08-05T03:57:44.356Z,7.97
2022-08-05T04:00:15.778Z,7.53
2022-08-05T04:02:57.832Z,9.27
2022-08-05T04:05:33.696Z,8.93
2022-08-05T04:08:30.271Z,10.90
2022-08-05T04:10:53.868Z,11.87
2022-08-05T04:13:21.725Z,12.43
2022-08-05T04:15:52.642Z,10.37
2022-08-05T04:18:30.123Z,10.83
2022-08-05T04:20:57.663Z,12.63
2022-08-05T04:23:57.137Z,12.10
2022-08-05T04:26:13.627Z,12.80
2022-08-05T04:28:40.099Z,12.00
2022-08-05T04:31:18.881Z,13.57
2022-08-05T04:34:18.480Z,14.67
2022-08-05T04:36:45.510Z,18.70
2022-08-05T04:39:15.984Z,17.53
2022-08-05T04:41:42.416Z,12.00
2022-08-05T04:44:10.737Z,11.33
2022-08-05T04:46:38.275Z,13.07
2022-08-05T04:49:05.960Z,16.03
2022-08-05T04:51:38.824Z,22.73
2022-08-05T04:54:05.357Z,17.30
2022-08-05T04:56:36.757Z,15.57
2022-08-05T04:59:21.426Z,14.60
2022-08-05T05:02:07.035Z,14.53
2022-08-05T05:04:38.249Z,15.20
2022-08-05T05:07:04.942Z,14.80
2022-08-05T05:09:37.407Z,10.40
2022-08-05T05:12:05.009Z,13.37
2022-08-05T05:14:32.747Z,11.43
2022-08-05T05:17:00.276Z,10.50
2022-08-05T05:19:36.623Z,11.37
2022-08-05T05:22:24.576Z,10.73
2022-08-05T05:24:58.937Z,11.80
2022-08-05T05:27:41.396Z,11.53
2022-08-05T05:30:29.292Z,12.30
2022-08-05T05:33:00.986Z,11.93
2022-08-05T05:35:37.937Z,14.43
2022-08-05T05:38:13.121Z,10.47
2022-08-05T05:40:48.369Z,15.63
2022-08-05T05:43:22.243Z,13.00
2022-08-05T05:46:05.119Z,16.43
2022-08-05T05:48:32.204Z,12.67
2022-08-05T05:51:14.765Z,13.50
2022-08-05T05:53:54.550Z,13.17
2022-08-05T05:56:31.801Z,21.83
2022-08-05T05:59:03.292Z,12.40
2022-08-05T06:01:38.091Z,12.93
2022-08-05T06:04:11.384Z,18.40
2022-08-05T06:06:41.756Z,21.00
2022-08-05T06:09:09.053Z,16.30
2022-08-05T06:11:59.316Z,13.20
2022-08-05T06:14:28.958Z,12.63
2022-08-05T06:16:55.507Z,16.00
2022-08-05T06:19:26.031Z,16.03
2022-08-05T06:22:02.279Z,12.57
2022-08-05T06:24:28.647Z,12.70
2022-08-05T06:26:55.489Z,12.30
2022-08-05T06:29:25.185Z,14.93
2022-08-05T06:32:21.408Z,18.87
2022-08-05T06:34:56.373Z,18.13
2022-08-05T06:37:52.261Z,12.60
2022-08-05T06:40:11.857Z,17.83
2022-08-05T06:42:39.728Z,13.83
2022-08-05T06:45:08.941Z,13.23
2022-08-05T06:48:47.134Z,13.63
2022-08-05T06:50:23.065Z,11.63
2022-08-05T06:52:58.696Z,10.87
2022-08-05T06:55:30.116Z,9.40
2022-08-05T06:58:19.715Z,9.17
2022-08-05T07:00:46.946Z,12.47
2022-08-05T07:03:13.839Z,10.23
2022-08-05T07:05:43.335Z,9.77
2022-08-05T07:08:10.616Z,9.17
2022-08-05T07:10:37.949Z,8.13
2022-08-05T07:13:57.211Z,8.13
2022-08-05T07:17:56.367Z,7.03
2022-08-05T07:19:15.475Z,8.63
2022-08-05T07:22:00.585Z,8.27
2022-08-05T07:24:28.756Z,7.80
2022-08-05T07:26:56.358Z,8.40
2022-08-05T07:30:21.864Z,8.97
2022-08-05T07:32:09.017Z,7.07
2022-08-05T07:34:40.461Z,9.17
2022-08-05T07:37:11.490Z,7.23
2022-08-05T07:40:04.400Z,8.40
2022-08-05T07:42:33.608Z,7.60
2022-08-05T07:45:00.728Z,7.13
2022-08-05T07:47:27.110Z,9.80
2022-08-05T07:50:09.583Z,7.70
2022-08-05T07:52:40.665Z,8.10
2022-08-05T07:55:43.939Z,8.83
2022-08-05T07:57:57.509Z,8.33
2022-08-05T08:00:29.079Z,8.53
2022-08-05T08:03:15.088Z,9.13
2022-08-05T08:05:49.334Z,7.83
2022-08-05T08:08:16.550Z,8.63
2022-08-05T08:10:49.053Z,8.53
2022-08-05T08:13:15.839Z,7.20
2022-08-05T08:16:34.532Z,5.87
2022-08-05T08:18:35.134Z,9.93
2022-08-05T08:21:09.799Z,7.30
2022-08-05T08:24:01.502Z,7.13
2022-08-05T08:26:29.941Z,6.83
2022-08-05T08:28:59.753Z,6.30
2022-08-05T08:31:43.531Z,6.70
2022-08-05T08:34:09.832Z,5.87
2022-08-05T08:36:50.162Z,6.10
2022-08-05T08:39:19.510Z,6.60
2022-08-05T08:41:52.612Z,6.33
2022-08-05T08:45:17.855Z,5.60
2022-08-05T08:48:07.079Z,5.53
2022-08-05T08:50:31.580Z,6.07
2022-08-05T08:53:07.926Z,6.30
2022-08-05T08:56:04.692Z,6.27
2022-08-05T08:58:43.897Z,5.93
2022-08-05T09:01:16.263Z,6.33
2022-08-05T09:03:46.239Z,6.73
2022-08-05T09:06:17.134Z,6.70
2022-08-05T09:08:46.795Z,5.40
2022-08-05T09:11:14.783Z,5.93
2022-08-05T09:14:01.068Z,5.27
2022-08-05T09:16:29.285Z,5.13
2022-08-05T09:18:55.761Z,5.40
2022-08-05T09:22:22.532Z,5.03
2022-08-05T09:24:14.659Z,5.67
2022-08-05T09:26:46.062Z,4.80
2022-08-05T09:29:17.583Z,5.90
2022-08-05T09:32:51.273Z,5.47
2022-08-05T09:34:49.106Z,5.57
2022-08-05T09:38:12.632Z,9.27
2022-08-05T09:40:29.566Z,5.57
2022-08-05T09:42:56.086Z,5.90
2022-08-05T09:46:06.696Z,6.00
2022-08-05T09:48:31.481Z,5.77
2022-08-05T09:50:59.539Z,5.97
2022-08-05T09:53:54.704Z,4.73
2022-08-05T09:56:14.420Z,6.23
2022-08-05T09:58:42.398Z,4.83
2022-08-05T10:01:14.616Z,5.40
2022-08-05T10:03:58.701Z,5.13
2022-08-05T10:06:27.595Z,6.07
2022-08-05T10:08:55.667Z,5.80
2022-08-05T10:11:22.976Z,6.10
2022-08-05T10:13:49.798Z,4.87
2022-08-05T10:16:42.080Z,5.73
2022-08-05T10:19:23.704Z,4.90
2022-08-05T10:21:59.058Z,4.90
2022-08-05T10:24:27.169Z,5.47
2022-08-05T10:27:00.261Z,5.97
2022-08-05T10:30:06.951Z,5.50
2022-08-05T10:32:52.970Z,4.17
2022-08-05T10:35:02.976Z,4.30
2022-08-05T10:37:40.084Z,3.40
2022-08-05T10:40:18.734Z,3.77
2022-08-05T10:42:50.597Z,3.23
2022-08-05T10:45:40.509Z,3.17
2022-08-05T10:48:57.105Z,3.00
2022-08-05T10:51:29.107Z,4.27
2022-08-05T10:54:02.045Z,4.43
2022-08-05T10:56:45.678Z,4.10
2022-08-05T11:00:03.770Z,2.80
2022-08-05T11:02:14.463Z,3.13
2022-08-05T11:04:58.054Z,5.03
2022-08-05T11:07:33.327Z,2.40
2022-08-05T11:10:22.107Z,2.33
2022-08-05T11:12:55.606Z,3.53
2022-08-05T11:15:59.210Z,3.93
2022-08-05T11:18:26.870Z,3.10
2022-08-05T11:20:53.666Z,3.77
2022-08-05T11:24:03.405Z,3.80
2022-08-05T11:26:32.960Z,3.50
2022-08-05T11:29:12.890Z,5.13
2022-08-05T11:31:56.361Z,5.03
2022-08-05T11:34:51.638Z,3.87
2022-08-05T11:38:26.653Z,5.67
2022-08-05T11:40:48.515Z,4.87
2022-08-05T11:44:04.602Z,4.47
2022-08-05T11:46:16.045Z,5.27
2022-08-05T11:48:55.649Z,5.67
2022-08-05T11:51:43.754Z,4.67
2022-08-05T11:54:15.507Z,6.83
2022-08-05T11:56:43.581Z,4.77
2022-08-05T11:59:22.853Z,4.70
2022-08-05T12:01:53.065Z,6.53
2022-08-05T12:04:19.478Z,5.80
2022-08-05T12:06:49.142Z,7.17
2022-08-05T12:09:20.867Z,7.70
2022-08-05T12:12:06.547Z,5.77
2022-08-05T12:14:43.373Z,6.87
2022-08-05T12:18:03.132Z,5.33
2022-08-05T12:20:25.726Z,5.43
2022-08-05T12:22:47.485Z,5.23
2022-08-05T12:25:18.302Z,5.33
2022-08-05T12:27:53.140Z,5.00
2022-08-05T12:30:22.294Z,5.90
2022-08-05T12:32:58.561Z,4.73
2022-08-05T12:35:39.733Z,4.47
2022-08-05T12:38:07.110Z,4.17
2022-08-05T12:40:36.592Z,5.57
2022-08-05T12:43:06.795Z,4.37
2022-08-05T12:45:42.505Z,4.43
2022-08-05T12:48:26.959Z,3.47
2022-08-05T12:52:14.465Z,3.63
2022-08-05T12:54:23.365Z,3.13
2022-08-05T12:56:58.841Z,3.33
2022-08-05T12:59:46.769Z,3.70
2022-08-05T13:02:21.821Z,3.83
2022-08-05T13:04:55.031Z,5.60
2022-08-05T13:07:47.839Z,3.67
2022-08-05T13:10:19.584Z,3.10
2022-08-05T13:12:51.023Z,3.30
2022-08-05T13:15:41.494Z,2.80
2022-08-05T13:18:19.696Z,2.50
2022-08-05T13:20:46.485Z,3.20
2022-08-05T13:23:12.822Z,3.10
2022-08-05T13:25:52.469Z,2.20
2022-08-05T13:28:26.252Z,2.50
2022-08-05T13:30:53.294Z,2.30
2022-08-05T13:34:20.955Z,5.60
2022-08-05T13:36:09.133Z,2.33
2022-08-05T13:38:38.190Z,2.93
2022-08-05T13:41:05.897Z,2.50
2022-08-05T13:43:44.366Z,2.10
2022-08-05T13:46:13.135Z,1.70
2022-08-05T13:48:57.193Z,1.57
2022-08-05T13:51:27.543Z,1.20
2022-08-05T13:53:57.842Z,1.10
2022-08-05T13:56:24.714Z,1.10
2022-08-05T13:58:52.828Z,1.30
2022-08-05T14:01:25.844Z,1.07
2022-08-05T14:04:21.285Z,1.20
2022-08-05T14:06:47.938Z,1.03
2022-08-05T14:09:25.201Z,1.37
2022-08-05T14:12:00.655Z,1.17
2022-08-05T14:14:42.510Z,1.33
2022-08-05T14:17:17.677Z,1.30
2022-08-05T14:19:55.462Z,1.30
2022-08-05T14:22:23.590Z,1.20
2022-08-05T14:24:56.602Z,2.63
2022-08-05T14:27:23.466Z,1.13
2022-08-05T14:29:55.232Z,1.20
2022-08-05T14:32:27.253Z,1.40
2022-08-05T14:34:56.687Z,1.20
2022-08-05T14:37:45.367Z,0.90
2022-08-05T14:40:13.975Z,1.20
2022-08-05T14:42:43.037Z,1.00
2022-08-05T14:45:10.086Z,0.80
2022-08-05T14:48:03.748Z,1.00
2022-08-05T14:50:23.068Z,1.30
2022-08-05T14:52:56.765Z,0.90
2022-08-05T14:55:26.019Z,0.87
2022-08-05T14:58:11.848Z,1.40
2022-08-05T15:00:59.717Z,1.10
2022-08-05T15:03:33.518Z,1.20
2022-08-05T15:06:07.858Z,0.90
2022-08-05T15:09:01.423Z,0.80
2022-08-05T15:11:52.656Z,0.70
2022-08-05T15:14:33.572Z,1.13
2022-08-05T15:17:01.253Z,3.30
2022-08-05T15:19:27.786Z,0.83
2022-08-05T15:21:54.327Z,0.93
2022-08-05T15:24:26.857Z,1.10
2022-08-05T15:26:53.264Z,0.73
2022-08-05T15:29:22.313Z,1.00
2022-08-05T15:31:52.887Z,1.57
2022-08-05T15:34:33.141Z,0.80
2022-08-05T15:37:06.076Z,8.03
2022-08-05T15:41:03.884Z,2.00
2022-08-05T15:42:49.927Z,2.63
2022-08-05T15:45:06.866Z,1.03
2022-08-05T15:47:36.147Z,1.00
2022-08-05T15:50:03.345Z,0.80
2022-08-05T15:52:53.586Z,1.20
2022-08-05T15:55:19.161Z,2.30
2022-08-05T15:57:50.849Z,1.17
2022-08-05T16:00:26.251Z,4.33
2022-08-05T16:03:04.627Z,0.77
2022-08-05T16:05:32.089Z,0.90
2022-08-05T16:07:58.777Z,0.93
2022-08-05T16:10:26.898Z,2.57
2022-08-05T16:12:55.970Z,0.80
2022-08-05T16:15:23.170Z,0.73
2022-08-05T16:17:58.030Z,3.00
2022-08-05T16:20:25.522Z,1.27
2022-08-05T16:22:51.925Z,0.80
2022-08-05T16:25:18.490Z,0.77
2022-08-05T16:28:01.063Z,0.80
2022-08-05T16:30:32.147Z,0.80
2022-08-05T16:33:00.046Z,0.70
2022-08-05T16:35:32.471Z,2.83
2022-08-05T16:38:16.174Z,0.80
2022-08-05T16:40:47.691Z,3.80
2022-08-05T16:43:18.729Z,0.80
2022-08-05T16:46:03.762Z,2.33
2022-08-05T16:48:33.479Z,0.70
2022-08-05T16:51:01.894Z,0.70
2022-08-05T16:53:32.123Z,0.70
2022-08-05T16:56:14.752Z,0.90
2022-08-05T16:58:41.353Z,0.83
2022-08-05T17:01:10.403Z,0.87
2022-08-05T17:03:37.288Z,0.93
2022-08-05T17:06:05.489Z,0.90
2022-08-05T17:08:51.753Z,0.73
2022-08-05T17:11:18.649Z,0.70
2022-08-05T17:13:45.907Z,0.80
2022-08-05T17:16:32.764Z,2.40
2022-08-05T17:18:59.827Z,1.20
2022-08-05T17:21:26.241Z,1.17
2022-08-05T17:24:14.260Z,4.37
2022-08-05T17:26:49.651Z,2.73
2022-08-05T17:29:17.049Z,0.90
2022-08-05T17:31:58.943Z,0.90
2022-08-05T17:34:29.927Z,0.90
2022-08-05T17:36:58.477Z,0.93
2022-08-05T17:39:33.515Z,1.10
2022-08-05T17:42:19.658Z,0.80
2022-08-05T17:44:50.403Z,0.87
2022-08-05T17:47:22.122Z,5.53
2022-08-05T17:50:03.504Z,1.10
2022-08-05T17:52:32.087Z,0.93
2022-08-05T17:54:58.834Z,1.43
2022-08-05T17:57:25.302Z,0.70
2022-08-05T18:00:03.458Z,4.17
2022-08-05T18:02:32.827Z,0.80
2022-08-05T18:05:02.740Z,1.37
2022-08-05T18:07:32.811Z,1.00
2022-08-05T18:10:09.927Z,0.90
2022-08-05T18:12:37.031Z,1.10
2022-08-05T18:15:04.750Z,1.00
2022-08-05T18:18:00.667Z,1.03
2022-08-05T18:20:19.366Z,0.80
2022-08-05T18:22:57.251Z,1.00
2022-08-05T18:25:25.152Z,1.00
2022-08-05T18:27:59.019Z,1.00
2022-08-05T18:30:32.167Z,0.90
2022-08-05T18:33:00.325Z,1.00
2022-08-05T18:36:00.609Z,1.00
2022-08-05T18:38:16.416Z,2.53
2022-08-05T18:41:56.091Z,1.20
2022-08-05T18:43:38.380Z,1.00
2022-08-05T18:46:09.955Z,0.93
2022-08-05T18:48:36.619Z,0.97
2022-08-05T18:52:04.323Z,1.00
2022-08-05T18:54:13.270Z,1.10
2022-08-05T18:56:40.284Z,1.80
2022-08-05T18:59:41.940Z,1.30
2022-08-05T19:01:56.994Z,1.00
2022-08-05T19:04:25.087Z,1.10
2022-08-05T19:06:51.874Z,1.03
2022-08-05T19:09:20.535Z,1.10
2022-08-05T19:12:00.327Z,2.30
2022-08-05T19:14:44.944Z,2.27
2022-08-05T19:17:15.488Z,1.00
2022-08-05T19:19:46.896Z,1.63
2022-08-05T19:22:17.023Z,0.90
2022-08-05T19:24:54.593Z,1.10
2022-08-05T19:27:23.159Z,1.43
2022-08-05T19:29:49.929Z,1.10
2022-08-05T19:32:16.394Z,1.50
2022-08-05T19:34:54.938Z,1.20
2022-08-05T19:37:22.440Z,6.43
2022-08-05T19:40:01.882Z,1.17
2022-08-05T19:42:35.574Z,1.23
2022-08-05T19:45:05.766Z,1.20
2022-08-05T19:47:34.004Z,1.40
2022-08-05T19:50:00.910Z,1.27
2022-08-05T19:52:31.377Z,1.33
2022-08-05T19:55:00.568Z,1.20
2022-08-05T19:57:48.973Z,1.27
2022-08-05T20:00:20.742Z,2.00
2022-08-05T20:02:47.395Z,1.13
2022-08-05T20:05:16.544Z,1.10
2022-08-05T20:07:53.876Z,2.00
2022-08-05T20:10:24.984Z,1.53
2022-08-05T20:12:51.583Z,1.57
2022-08-05T20:15:48.332Z,1.40
2022-08-05T20:18:10.288Z,2.33
2022-08-05T20:20:55.119Z,11.70
2022-08-05T20:23:22.847Z,3.10
2022-08-05T20:25:49.379Z,3.83
2022-08-05T20:28:18.762Z,3.30
2022-08-05T20:30:45.258Z,1.10
2022-08-05T20:33:14.279Z,1.20
2022-08-05T20:35:45.630Z,1.40
2022-08-05T20:38:20.015Z,1.60
2022-08-05T20:40:53.204Z,1.43
2022-08-05T20:43:57.717Z,1.47
2022-08-05T20:46:10.057Z,1.30
2022-08-05T20:48:38.958Z,1.67
2022-08-05T20:51:08.725Z,1.83
2022-08-05T20:53:40.791Z,1.40
2022-08-05T20:56:09.735Z,1.80
2022-08-05T20:58:36.988Z,1.67
2022-08-05T21:01:04.492Z,1.77
2022-08-05T21:03:34.724Z,1.30
2022-08-05T21:06:01.774Z,1.27
2022-08-05T21:08:36.002Z,2.20
2022-08-05T21:11:12.766Z,1.97
2022-08-05T21:13:55.544Z,1.57
2022-08-05T21:16:29.729Z,2.00
2022-08-05T21:19:00.926Z,1.50
2022-08-05T21:21:43.702Z,1.63
2022-08-05T21:24:16.749Z,2.07
2022-08-05T21:26:53.557Z,2.33
2022-08-05T21:29:26.633Z,2.77
2022-08-05T21:31:58.741Z,1.60
2022-08-05T21:34:25.142Z,1.50
2022-08-05T21:36:51.612Z,2.07
2022-08-05T21:39:26.611Z,1.87
2022-08-05T21:42:01.984Z,2.17
2022-08-05T21:44:30.122Z,1.90
2022-08-05T21:46:58.223Z,1.70
2022-08-05T21:49:58.604Z,2.07
2022-08-05T21:52:22.433Z,1.93
2022-08-05T21:54:54.935Z,1.83
2022-08-05T21:57:31.276Z,1.70
2022-08-05T22:00:10.691Z,1.20
2022-08-05T22:02:41.699Z,1.70
2022-08-05T22:05:10.054Z,1.47
2022-08-05T22:07:54.233Z,3.30
2022-08-05T22:10:26.787Z,1.43
2022-08-05T22:12:59.029Z,1.70
2022-08-05T22:16:01.367Z,1.70
2022-08-05T22:18:22.963Z,1.60
2022-08-05T22:20:52.610Z,2.00
2022-08-05T22:24:02.361Z,3.30
2022-08-05T22:26:42.341Z,1.60
2022-08-05T22:29:17.336Z,4.70
2022-08-05T22:31:45.300Z,1.80
2022-08-05T22:34:20.069Z,1.70
2022-08-05T22:36:52.275Z,1.77
2022-08-05T22:39:21.379Z,3.40
2022-08-05T22:42:09.646Z,1.70
2022-08-05T22:44:34.555Z,2.27
2022-08-05T22:47:00.970Z,1.90
2022-08-05T22:50:20.557Z,1.70
2022-08-05T22:52:22.774Z,2.00
2022-08-05T22:54:57.024Z,2.10
2022-08-05T22:57:23.419Z,2.00
2022-08-05T22:59:53.840Z,2.57
2022-08-05T23:02:29.183Z,1.80
2022-08-05T23:04:57.806Z,1.60
2022-08-05T23:07:28.901Z,1.73
2022-08-05T23:10:01.192Z,3.00
2022-08-05T23:12:32.445Z,3.90
2022-08-05T23:15:03.416Z,2.20
2022-08-05T23:17:34.284Z,1.87
2022-08-05T23:20:15.497Z,2.40
2022-08-05T23:22:47.518Z,2.70
2022-08-05T23:25:50.337Z,2.23
2022-08-05T23:28:01.536Z,2.13
2022-08-05T23:30:29.235Z,1.90
2022-08-05T23:32:58.023Z,1.63
2022-08-05T23:35:28.509Z,1.60
2022-08-05T23:38:00.865Z,2.40
2022-08-05T23:40:27.479Z,1.77
2022-08-05T23:42:54.074Z,1.80
2022-08-05T23:45:20.821Z,2.10
2022-08-05T23:47:50.355Z,4.20
2022-08-05T23:50:20.508Z,4.80
2022-08-05T23:52:49.758Z,2.07
2022-08-05T23:55:17.815Z,1.97
2022-08-05T23:57:44.205Z,2.23
